sensor_id;sensor_type;location;lat;lon;timestamp;temperature;humidity
5126;DHT22;2581;53.112;8.896;2022-07-15T00:02:25;16.90;99.90
5126;DHT22;2581;53.112;8.896;2022-07-15T00:04:51;16.90;99.90
5126;DHT22;2581;53.112;8.896;2022-07-15T00:07:17;16.90;99.90
5126;DHT22;2581;53.112;8.896;2022-07-15T00:09:42;16.90;99.90
5126;DHT22;2581;53.112;8.896;2022-07-15T00:12:27;16.90;99.90
5126;DHT22;2581;53.112;8.896;2022-07-15T00:14:53;16.90;99.90
5126;DHT22;2581;53.112;8.896;2022-07-15T00:17:18;16.90;99.90
5126;DHT22;2581;53.112;8.896;2022-07-15T00:19:44;16.90;99.90
5126;DHT22;2581;53.112;8.896;2022-07-15T00:22:10;16.90;99.90
5126;DHT22;2581;53.112;8.896;2022-07-15T00:24:37;17.00;99.90
5126;DHT22;2581;53.112;8.896;2022-07-15T00:27:03;17.00;99.90
5126;DHT22;2581;53.112;8.896;2022-07-15T00:29:29;17.00;99.90
5126;DHT22;2581;53.112;8.896;2022-07-15T00:31:55;16.90;99.90
5126;DHT22;2581;53.112;8.896;2022-07-15T00:34:21;16.90;99.90
5126;DHT22;2581;53.112;8.896;2022-07-15T00:36:47;16.90;99.90
5126;DHT22;2581;53.112;8.896;2022-07-15T00:39:14;16.90;99.90
5126;DHT22;2581;53.112;8.896;2022-07-15T00:41:41;16.90;99.90
5126;DHT22;2581;53.112;8.896;2022-07-15T00:44:07;16.80;99.90
5126;DHT22;2581;53.112;8.896;2022-07-15T00:46:34;16.80;99.90
5126;DHT22;2581;53.112;8.896;2022-07-15T00:49:02;16.80;99.90
5126;DHT22;2581;53.112;8.896;2022-07-15T00:51:35;16.80;99.90
5126;DHT22;2581;53.112;8.896;2022-07-15T00:54:02;16.80;99.90
5126;DHT22;2581;53.112;8.896;2022-07-15T00:56:30;16.80;99.90
5126;DHT22;2581;53.112;8.896;2022-07-15T00:58:59;16.80;99.90
5126;DHT22;2581;53.112;8.896;2022-07-15T01:01:26;16.90;99.90
5126;DHT22;2581;53.112;8.896;2022-07-15T01:03:52;16.90;99.90
5126;DHT22;2581;53.112;8.896;2022-07-15T01:06:19;16.90;99.90
5126;DHT22;2581;53.112;8.896;2022-07-15T01:08:45;16.90;99.90
5126;DHT22;2581;53.112;8.896;2022-07-15T01:11:10;16.80;99.90
5126;DHT22;2581;53.112;8.896;2022-07-15T01:13:36;16.80;99.90
5126;DHT22;2581;53.112;8.896;2022-07-15T01:16:03;16.80;99.90
5126;DHT22;2581;53.112;8.896;2022-07-15T01:18:29;16.70;99.90
5126;DHT22;2581;53.112;8.896;2022-07-15T01:20:54;16.70;99.90
5126;DHT22;2581;53.112;8.896;2022-07-15T01:23:20;16.70;99.90
5126;DHT22;2581;53.112;8.896;2022-07-15T01:25:46;16.70;99.90
5126;DHT22;2581;53.112;8.896;2022-07-15T01:28:12;16.70;99.90
5126;DHT22;2581;53.112;8.896;2022-07-15T01:30:38;16.70;99.90
5126;DHT22;2581;53.112;8.896;2022-07-15T01:33:04;16.70;99.90
5126;DHT22;2581;53.112;8.896;2022-07-15T01:35:30;16.80;99.90
5126;DHT22;2581;53.112;8.896;2022-07-15T01:37:56;16.70;99.90
5126;DHT22;2581;53.112;8.896;2022-07-15T01:40:21;16.70;99.90
5126;DHT22;2581;53.112;8.896;2022-07-15T01:42:47;16.70;99.90
5126;DHT22;2581;53.112;8.896;2022-07-15T01:45:13;16.70;99.90
5126;DHT22;2581;53.112;8.896;2022-07-15T01:47:47;16.70;99.90
5126;DHT22;2581;53.112;8.896;2022-07-15T01:50:14;16.60;99.90
5126;DHT22;2581;53.112;8.896;2022-07-15T01:52:41;16.60;99.90
5126;DHT22;2581;53.112;8.896;2022-07-15T01:55:08;16.60;99.90
5126;DHT22;2581;53.112;8.896;2022-07-15T01:57:35;16.50;99.90
5126;DHT22;2581;53.112;8.896;2022-07-15T02:00:01;16.60;99.90
5126;DHT22;2581;53.112;8.896;2022-07-15T02:02:26;16.60;99.90
5126;DHT22;2581;53.112;8.896;2022-07-15T02:04:52;16.50;99.90
5126;DHT22;2581;53.112;8.896;2022-07-15T02:07:18;16.50;99.90
5126;DHT22;2581;53.112;8.896;2022-07-15T02:09:44;16.50;99.90
5126;DHT22;2581;53.112;8.896;2022-07-15T02:12:09;16.50;99.90
5126;DHT22;2581;53.112;8.896;2022-07-15T02:14:35;16.50;99.90
5126;DHT22;2581;53.112;8.896;2022-07-15T02:17:02;16.50;99.90
5126;DHT22;2581;53.112;8.896;2022-07-15T02:19:28;16.50;99.90
5126;DHT22;2581;53.112;8.896;2022-07-15T02:21:53;16.40;99.90
5126;DHT22;2581;53.112;8.896;2022-07-15T02:24:19;16.40;99.90
5126;DHT22;2581;53.112;8.896;2022-07-15T02:26:48;16.50;99.90
5126;DHT22;2581;53.112;8.896;2022-07-15T02:29:15;16.50;99.90
5126;DHT22;2581;53.112;8.896;2022-07-15T02:31:41;16.50;99.90
5126;DHT22;2581;53.112;8.896;2022-07-15T02:34:07;16.50;99.90
5126;DHT22;2581;53.112;8.896;2022-07-15T02:36:33;16.50;99.90
5126;DHT22;2581;53.112;8.896;2022-07-15T02:38:58;16.50;99.90
5126;DHT22;2581;53.112;8.896;2022-07-15T02:41:24;16.50;99.90
5126;DHT22;2581;53.112;8.896;2022-07-15T02:43:51;16.50;99.90
5126;DHT22;2581;53.112;8.896;2022-07-15T02:46:17;16.60;99.90
5126;DHT22;2581;53.112;8.896;2022-07-15T02:48:43;16.50;99.90
5126;DHT22;2581;53.112;8.896;2022-07-15T02:51:09;16.50;99.90
5126;DHT22;2581;53.112;8.896;2022-07-15T02:53:35;16.50;99.90
5126;DHT22;2581;53.112;8.896;2022-07-15T02:56:02;16.60;99.90
5126;DHT22;2581;53.112;8.896;2022-07-15T02:58:29;16.50;99.90
5126;DHT22;2581;53.112;8.896;2022-07-15T03:00:56;16.50;99.90
5126;DHT22;2581;53.112;8.896;2022-07-15T03:03:22;16.50;99.90
5126;DHT22;2581;53.112;8.896;2022-07-15T03:05:49;16.50;99.90
5126;DHT22;2581;53.112;8.896;2022-07-15T03:08:16;16.50;99.90
5126;DHT22;2581;53.112;8.896;2022-07-15T03:10:42;16.40;99.90
5126;DHT22;2581;53.112;8.896;2022-07-15T03:13:08;16.40;99.90
5126;DHT22;2581;53.112;8.896;2022-07-15T03:15:34;16.40;99.90
5126;DHT22;2581;53.112;8.896;2022-07-15T03:17:59;16.40;99.90
5126;DHT22;2581;53.112;8.896;2022-07-15T03:20:25;16.40;99.90
5126;DHT22;2581;53.112;8.896;2022-07-15T03:22:51;16.30;99.90
5126;DHT22;2581;53.112;8.896;2022-07-15T03:25:17;16.30;99.90
5126;DHT22;2581;53.112;8.896;2022-07-15T03:27:43;16.20;99.90
5126;DHT22;2581;53.112;8.896;2022-07-15T03:30:09;16.30;99.90
5126;DHT22;2581;53.112;8.896;2022-07-15T03:32:34;16.30;99.90
5126;DHT22;2581;53.112;8.896;2022-07-15T03:35:00;16.40;99.90
5126;DHT22;2581;53.112;8.896;2022-07-15T03:37:26;16.30;99.90
5126;DHT22;2581;53.112;8.896;2022-07-15T03:39:52;16.40;99.90
5126;DHT22;2581;53.112;8.896;2022-07-15T03:42:17;16.30;99.90
5126;DHT22;2581;53.112;8.896;2022-07-15T03:44:43;16.30;99.90
5126;DHT22;2581;53.112;8.896;2022-07-15T03:47:09;16.40;99.90
5126;DHT22;2581;53.112;8.896;2022-07-15T03:49:34;16.40;99.90
5126;DHT22;2581;53.112;8.896;2022-07-15T03:52:00;16.40;99.90
5126;DHT22;2581;53.112;8.896;2022-07-15T03:54:26;16.40;99.90
5126;DHT22;2581;53.112;8.896;2022-07-15T03:56:51;16.40;99.90
5126;DHT22;2581;53.112;8.896;2022-07-15T03:59:19;16.40;99.90
5126;DHT22;2581;53.112;8.896;2022-07-15T04:01:47;16.40;99.90
5126;DHT22;2581;53.112;8.896;2022-07-15T04:04:14;16.40;99.90
5126;DHT22;2581;53.112;8.896;2022-07-15T04:06:40;16.40;99.90
5126;DHT22;2581;53.112;8.896;2022-07-15T04:09:06;16.40;99.90
5126;DHT22;2581;53.112;8.896;2022-07-15T04:11:32;16.40;99.90
5126;DHT22;2581;53.112;8.896;2022-07-15T04:13:58;16.30;99.90
5126;DHT22;2581;53.112;8.896;2022-07-15T04:16:24;16.30;99.90
5126;DHT22;2581;53.112;8.896;2022-07-15T04:18:50;16.30;99.90
5126;DHT22;2581;53.112;8.896;2022-07-15T04:21:17;16.20;99.90
5126;DHT22;2581;53.112;8.896;2022-07-15T04:23:43;16.20;99.90
5126;DHT22;2581;53.112;8.896;2022-07-15T04:26:09;16.20;99.90
5126;DHT22;2581;53.112;8.896;2022-07-15T04:28:35;16.20;99.90
5126;DHT22;2581;53.112;8.896;2022-07-15T04:31:00;16.30;99.90
5126;DHT22;2581;53.112;8.896;2022-07-15T04:33:26;16.30;99.90
5126;DHT22;2581;53.112;8.896;2022-07-15T04:35:52;16.30;99.90
5126;DHT22;2581;53.112;8.896;2022-07-15T04:38:17;16.40;99.90
5126;DHT22;2581;53.112;8.896;2022-07-15T04:40:43;16.40;99.90
5126;DHT22;2581;53.112;8.896;2022-07-15T04:43:09;16.40;99.90
5126;DHT22;2581;53.112;8.896;2022-07-15T04:45:35;16.40;99.90
5126;DHT22;2581;53.112;8.896;2022-07-15T04:48:01;16.40;99.90
5126;DHT22;2581;53.112;8.896;2022-07-15T04:50:27;16.40;99.90
5126;DHT22;2581;53.112;8.896;2022-07-15T04:53:11;16.40;99.90
5126;DHT22;2581;53.112;8.896;2022-07-15T04:55:37;16.40;99.90
5126;DHT22;2581;53.112;8.896;2022-07-15T04:58:03;16.40;99.90
5126;DHT22;2581;53.112;8.896;2022-07-15T05:00:29;16.50;99.90
5126;DHT22;2581;53.112;8.896;2022-07-15T05:02:55;16.50;99.90
5126;DHT22;2581;53.112;8.896;2022-07-15T05:05:21;16.50;99.90
5126;DHT22;2581;53.112;8.896;2022-07-15T05:07:46;16.60;99.90
5126;DHT22;2581;53.112;8.896;2022-07-15T05:10:12;16.60;99.90
5126;DHT22;2581;53.112;8.896;2022-07-15T05:12:38;16.60;99.90
5126;DHT22;2581;53.112;8.896;2022-07-15T05:15:05;16.60;99.90
5126;DHT22;2581;53.112;8.896;2022-07-15T05:17:31;16.70;99.90
5126;DHT22;2581;53.112;8.896;2022-07-15T05:19:56;16.70;99.90
5126;DHT22;2581;53.112;8.896;2022-07-15T05:22:22;16.80;99.90
5126;DHT22;2581;53.112;8.896;2022-07-15T05:24:48;16.90;99.90
5126;DHT22;2581;53.112;8.896;2022-07-15T05:27:15;17.10;99.90
5126;DHT22;2581;53.112;8.896;2022-07-15T05:29:41;17.40;99.90
5126;DHT22;2581;53.112;8.896;2022-07-15T05:32:06;17.60;99.90
5126;DHT22;2581;53.112;8.896;2022-07-15T05:34:32;17.50;99.90
5126;DHT22;2581;53.112;8.896;2022-07-15T05:36:58;17.40;99.90
5126;DHT22;2581;53.112;8.896;2022-07-15T05:39:24;17.20;99.90
5126;DHT22;2581;53.112;8.896;2022-07-15T05:41:49;17.10;99.90
5126;DHT22;2581;53.112;8.896;2022-07-15T05:44:15;17.10;99.90
5126;DHT22;2581;53.112;8.896;2022-07-15T05:46:42;17.10;99.90
5126;DHT22;2581;53.112;8.896;2022-07-15T05:49:07;17.00;99.90
5126;DHT22;2581;53.112;8.896;2022-07-15T05:51:33;17.10;99.90
5126;DHT22;2581;53.112;8.896;2022-07-15T05:53:59;17.00;99.90
5126;DHT22;2581;53.112;8.896;2022-07-15T05:56:25;17.00;99.90
5126;DHT22;2581;53.112;8.896;2022-07-15T05:58:51;17.00;99.90
5126;DHT22;2581;53.112;8.896;2022-07-15T06:01:17;17.00;99.90
5126;DHT22;2581;53.112;8.896;2022-07-15T06:03:42;17.00;99.90
5126;DHT22;2581;53.112;8.896;2022-07-15T06:06:08;17.00;99.90
5126;DHT22;2581;53.112;8.896;2022-07-15T06:08:34;17.00;99.90
5126;DHT22;2581;53.112;8.896;2022-07-15T06:11:01;17.10;99.90
5126;DHT22;2581;53.112;8.896;2022-07-15T06:13:26;17.10;99.90
5126;DHT22;2581;53.112;8.896;2022-07-15T06:15:52;17.10;99.90
5126;DHT22;2581;53.112;8.896;2022-07-15T06:18:18;17.20;99.90
5126;DHT22;2581;53.112;8.896;2022-07-15T06:20:44;17.20;99.90
5126;DHT22;2581;53.112;8.896;2022-07-15T06:23:09;17.20;99.90
5126;DHT22;2581;53.112;8.896;2022-07-15T06:25:35;17.30;99.90
5126;DHT22;2581;53.112;8.896;2022-07-15T06:28:02;17.30;99.90
5126;DHT22;2581;53.112;8.896;2022-07-15T06:30:28;17.30;99.90
5126;DHT22;2581;53.112;8.896;2022-07-15T06:32:54;17.40;99.90
5126;DHT22;2581;53.112;8.896;2022-07-15T06:35:20;17.50;99.90
5126;DHT22;2581;53.112;8.896;2022-07-15T06:37:45;17.40;99.90
5126;DHT22;2581;53.112;8.896;2022-07-15T06:40:11;17.50;99.90
5126;DHT22;2581;53.112;8.896;2022-07-15T06:42:37;17.40;99.90
5126;DHT22;2581;53.112;8.896;2022-07-15T06:45:04;17.40;99.90
5126;DHT22;2581;53.112;8.896;2022-07-15T06:47:30;17.40;99.90
5126;DHT22;2581;53.112;8.896;2022-07-15T06:49:56;17.40;99.90
5126;DHT22;2581;53.112;8.896;2022-07-15T06:52:21;17.40;99.90
5126;DHT22;2581;53.112;8.896;2022-07-15T06:54:47;17.50;99.90
5126;DHT22;2581;53.112;8.896;2022-07-15T06:57:13;17.50;99.90
5126;DHT22;2581;53.112;8.896;2022-07-15T06:59:42;17.60;99.90
5126;DHT22;2581;53.112;8.896;2022-07-15T07:02:08;17.60;99.90
5126;DHT22;2581;53.112;8.896;2022-07-15T07:04:34;17.60;99.90
5126;DHT22;2581;53.112;8.896;2022-07-15T07:07:00;17.70;99.90
5126;DHT22;2581;53.112;8.896;2022-07-15T07:09:25;17.70;99.90
5126;DHT22;2581;53.112;8.896;2022-07-15T07:11:51;17.70;99.90
5126;DHT22;2581;53.112;8.896;2022-07-15T07:14:17;17.80;99.90
5126;DHT22;2581;53.112;8.896;2022-07-15T07:16:43;17.90;99.90
5126;DHT22;2581;53.112;8.896;2022-07-15T07:19:09;18.00;99.90
5126;DHT22;2581;53.112;8.896;2022-07-15T07:21:35;18.00;99.90
5126;DHT22;2581;53.112;8.896;2022-07-15T07:24:00;18.10;99.90
5126;DHT22;2581;53.112;8.896;2022-07-15T07:26:27;18.20;99.90
5126;DHT22;2581;53.112;8.896;2022-07-15T07:28:52;18.20;99.90
5126;DHT22;2581;53.112;8.896;2022-07-15T07:31:18;18.30;99.90
5126;DHT22;2581;53.112;8.896;2022-07-15T07:33:48;18.30;99.90
5126;DHT22;2581;53.112;8.896;2022-07-15T07:36:14;18.30;99.90
5126;DHT22;2581;53.112;8.896;2022-07-15T07:38:40;18.30;99.90
5126;DHT22;2581;53.112;8.896;2022-07-15T07:41:07;18.30;99.90
5126;DHT22;2581;53.112;8.896;2022-07-15T07:43:32;18.30;99.90
5126;DHT22;2581;53.112;8.896;2022-07-15T07:45:58;18.40;99.90
5126;DHT22;2581;53.112;8.896;2022-07-15T07:48:24;18.40;99.90
5126;DHT22;2581;53.112;8.896;2022-07-15T07:50:49;18.40;99.90
5126;DHT22;2581;53.112;8.896;2022-07-15T07:53:15;18.40;99.90
5126;DHT22;2581;53.112;8.896;2022-07-15T07:55:41;18.40;99.90
5126;DHT22;2581;53.112;8.896;2022-07-15T07:58:07;18.40;99.90
5126;DHT22;2581;53.112;8.896;2022-07-15T08:00:34;18.40;99.90
5126;DHT22;2581;53.112;8.896;2022-07-15T08:03:00;18.40;99.90
5126;DHT22;2581;53.112;8.896;2022-07-15T08:05:27;18.50;99.90
5126;DHT22;2581;53.112;8.896;2022-07-15T08:08:09;18.50;99.90
5126;DHT22;2581;53.112;8.896;2022-07-15T08:10:36;18.50;99.90
5126;DHT22;2581;53.112;8.896;2022-07-15T08:13:02;18.50;99.90
5126;DHT22;2581;53.112;8.896;2022-07-15T08:15:28;18.50;99.90
5126;DHT22;2581;53.112;8.896;2022-07-15T08:17:54;18.50;99.90
5126;DHT22;2581;53.112;8.896;2022-07-15T08:20:19;18.50;99.90
5126;DHT22;2581;53.112;8.896;2022-07-15T08:22:45;18.50;99.90
5126;DHT22;2581;53.112;8.896;2022-07-15T08:25:11;18.50;99.90
5126;DHT22;2581;53.112;8.896;2022-07-15T08:27:36;18.60;99.90
5126;DHT22;2581;53.112;8.896;2022-07-15T08:30:03;18.60;99.90
5126;DHT22;2581;53.112;8.896;2022-07-15T08:32:29;18.60;99.90
5126;DHT22;2581;53.112;8.896;2022-07-15T08:34:54;18.70;99.90
5126;DHT22;2581;53.112;8.896;2022-07-15T08:37:20;18.80;99.90
5126;DHT22;2581;53.112;8.896;2022-07-15T08:39:46;18.80;99.90
5126;DHT22;2581;53.112;8.896;2022-07-15T08:42:12;18.90;99.90
5126;DHT22;2581;53.112;8.896;2022-07-15T08:44:39;19.00;99.90
5126;DHT22;2581;53.112;8.896;2022-07-15T08:47:05;19.00;99.90
5126;DHT22;2581;53.112;8.896;2022-07-15T08:49:32;19.10;99.90
5126;DHT22;2581;53.112;8.896;2022-07-15T08:52:00;19.20;99.90
5126;DHT22;2581;53.112;8.896;2022-07-15T08:54:27;19.30;99.90
5126;DHT22;2581;53.112;8.896;2022-07-15T08:56:53;19.30;99.90
5126;DHT22;2581;53.112;8.896;2022-07-15T08:59:19;19.40;99.90
5126;DHT22;2581;53.112;8.896;2022-07-15T09:01:47;19.50;99.90
5126;DHT22;2581;53.112;8.896;2022-07-15T09:04:15;19.50;99.90
5126;DHT22;2581;53.112;8.896;2022-07-15T09:06:43;19.50;99.90
5126;DHT22;2581;53.112;8.896;2022-07-15T09:11:50;19.60;99.90
5126;DHT22;2581;53.112;8.896;2022-07-15T09:14:18;19.70;99.90
5126;DHT22;2581;53.112;8.896;2022-07-15T09:16:45;19.70;99.90
5126;DHT22;2581;53.112;8.896;2022-07-15T09:19:11;19.60;99.90
5126;DHT22;2581;53.112;8.896;2022-07-15T09:21:41;19.60;99.90
5126;DHT22;2581;53.112;8.896;2022-07-15T09:24:18;19.50;99.90
5126;DHT22;2581;53.112;8.896;2022-07-15T09:26:44;19.50;99.90
5126;DHT22;2581;53.112;8.896;2022-07-15T09:29:09;19.50;99.90
5126;DHT22;2581;53.112;8.896;2022-07-15T09:31:58;19.60;99.90
5126;DHT22;2581;53.112;8.896;2022-07-15T09:35:03;19.70;99.90
5126;DHT22;2581;53.112;8.896;2022-07-15T09:37:30;19.80;99.90
5126;DHT22;2581;53.112;8.896;2022-07-15T09:39:57;19.70;99.90
5126;DHT22;2581;53.112;8.896;2022-07-15T09:42:23;19.70;99.90
5126;DHT22;2581;53.112;8.896;2022-07-15T09:44:49;19.80;99.90
5126;DHT22;2581;53.112;8.896;2022-07-15T09:47:20;19.80;99.90
5126;DHT22;2581;53.112;8.896;2022-07-15T09:49:48;19.70;99.90
5126;DHT22;2581;53.112;8.896;2022-07-15T09:52:14;19.70;99.90
5126;DHT22;2581;53.112;8.896;2022-07-15T09:54:47;19.60;99.90
5126;DHT22;2581;53.112;8.896;2022-07-15T09:57:17;19.60;99.90
5126;DHT22;2581;53.112;8.896;2022-07-15T09:59:45;19.50;99.90
5126;DHT22;2581;53.112;8.896;2022-07-15T10:02:11;19.50;99.90
5126;DHT22;2581;53.112;8.896;2022-07-15T10:04:37;19.60;99.90
5126;DHT22;2581;53.112;8.896;2022-07-15T10:07:04;19.50;99.90
5126;DHT22;2581;53.112;8.896;2022-07-15T10:09:32;19.50;99.90
5126;DHT22;2581;53.112;8.896;2022-07-15T10:12:22;19.60;99.90
5126;DHT22;2581;53.112;8.896;2022-07-15T10:28:15;19.10;99.90
5126;DHT22;2581;53.112;8.896;2022-07-15T10:30:43;19.00;99.90
5126;DHT22;2581;53.112;8.896;2022-07-15T10:33:18;18.90;99.90
5126;DHT22;2581;53.112;8.896;2022-07-15T10:35:53;18.80;99.90
5126;DHT22;2581;53.112;8.896;2022-07-15T10:38:47;18.70;99.90
5126;DHT22;2581;53.112;8.896;2022-07-15T10:41:18;18.70;99.90
5126;DHT22;2581;53.112;8.896;2022-07-15T10:43:51;18.70;99.90
5126;DHT22;2581;53.112;8.896;2022-07-15T10:48:44;18.50;99.90
5126;DHT22;2581;53.112;8.896;2022-07-15T10:51:10;18.50;99.90
5126;DHT22;2581;53.112;8.896;2022-07-15T10:53:44;18.50;99.90
5126;DHT22;2581;53.112;8.896;2022-07-15T10:56:43;18.40;99.90
5126;DHT22;2581;53.112;8.896;2022-07-15T10:59:20;18.40;99.90
5126;DHT22;2581;53.112;8.896;2022-07-15T11:01:49;18.40;99.90
5126;DHT22;2581;53.112;8.896;2022-07-15T11:04:23;18.60;99.90
5126;DHT22;2581;53.112;8.896;2022-07-15T11:20:02;19.40;99.90
5126;DHT22;2581;53.112;8.896;2022-07-15T11:22:35;19.40;99.90
5126;DHT22;2581;53.112;8.896;2022-07-15T11:25:01;19.50;99.90
5126;DHT22;2581;53.112;8.896;2022-07-15T11:27:29;19.60;99.90
5126;DHT22;2581;53.112;8.896;2022-07-15T11:29:57;19.90;99.90
5126;DHT22;2581;53.112;8.896;2022-07-15T11:32:27;20.20;99.90
5126;DHT22;2581;53.112;8.896;2022-07-15T11:34:56;20.40;99.90
5126;DHT22;2581;53.112;8.896;2022-07-15T11:37:40;20.50;99.90
5126;DHT22;2581;53.112;8.896;2022-07-15T11:40:16;20.60;99.90
5126;DHT22;2581;53.112;8.896;2022-07-15T11:43:03;20.80;99.90
5126;DHT22;2581;53.112;8.896;2022-07-15T11:45:48;21.00;99.90
5126;DHT22;2581;53.112;8.896;2022-07-15T11:48:14;21.10;99.90
5126;DHT22;2581;53.112;8.896;2022-07-15T11:50:54;21.20;99.90
5126;DHT22;2581;53.112;8.896;2022-07-15T11:53:20;21.10;99.90
5126;DHT22;2581;53.112;8.896;2022-07-15T11:58:15;21.00;99.90
5126;DHT22;2581;53.112;8.896;2022-07-15T12:00:48;20.90;99.90
5126;DHT22;2581;53.112;8.896;2022-07-15T12:03:14;21.00;99.90
5126;DHT22;2581;53.112;8.896;2022-07-15T12:05:39;21.10;99.90
5126;DHT22;2581;53.112;8.896;2022-07-15T12:08:05;21.40;99.90
5126;DHT22;2581;53.112;8.896;2022-07-15T12:10:36;21.70;99.90
5126;DHT22;2581;53.112;8.896;2022-07-15T12:13:03;21.80;99.90
5126;DHT22;2581;53.112;8.896;2022-07-15T12:15:32;22.00;99.90
5126;DHT22;2581;53.112;8.896;2022-07-15T12:17:58;22.10;99.90
5126;DHT22;2581;53.112;8.896;2022-07-15T12:20:24;22.20;99.90
5126;DHT22;2581;53.112;8.896;2022-07-15T12:23:08;22.20;99.90
5126;DHT22;2581;53.112;8.896;2022-07-15T12:25:35;22.10;99.90
5126;DHT22;2581;53.112;8.896;2022-07-15T12:28:01;22.00;99.90
5126;DHT22;2581;53.112;8.896;2022-07-15T12:30:35;21.80;99.90
5126;DHT22;2581;53.112;8.896;2022-07-15T12:33:34;21.60;99.90
5126;DHT22;2581;53.112;8.896;2022-07-15T12:36:19;21.30;99.90
5126;DHT22;2581;53.112;8.896;2022-07-15T12:38:45;21.00;99.90
5126;DHT22;2581;53.112;8.896;2022-07-15T12:41:23;20.80;99.90
5126;DHT22;2581;53.112;8.896;2022-07-15T12:43:53;20.60;99.90
5126;DHT22;2581;53.112;8.896;2022-07-15T12:46:19;20.40;99.90
5126;DHT22;2581;53.112;8.896;2022-07-15T12:48:49;20.30;99.90
5126;DHT22;2581;53.112;8.896;2022-07-15T12:51:16;20.10;99.90
5126;DHT22;2581;53.112;8.896;2022-07-15T12:53:43;20.00;99.90
5126;DHT22;2581;53.112;8.896;2022-07-15T12:56:09;19.90;99.90
5126;DHT22;2581;53.112;8.896;2022-07-15T12:58:36;19.60;99.90
5126;DHT22;2581;53.112;8.896;2022-07-15T13:03:32;19.20;99.90
5126;DHT22;2581;53.112;8.896;2022-07-15T13:05:58;19.10;99.90
5126;DHT22;2581;53.112;8.896;2022-07-15T13:08:33;18.90;99.90
5126;DHT22;2581;53.112;8.896;2022-07-15T13:11:01;18.80;99.90
5126;DHT22;2581;53.112;8.896;2022-07-15T13:13:29;18.70;99.90
5126;DHT22;2581;53.112;8.896;2022-07-15T13:15:56;18.70;99.90
5126;DHT22;2581;53.112;8.896;2022-07-15T13:18:24;18.70;99.90
5126;DHT22;2581;53.112;8.896;2022-07-15T13:20:51;18.70;99.90
5126;DHT22;2581;53.112;8.896;2022-07-15T13:23:18;19.00;99.90
5126;DHT22;2581;53.112;8.896;2022-07-15T13:25:44;19.20;99.90
5126;DHT22;2581;53.112;8.896;2022-07-15T13:28:11;19.20;99.90
5126;DHT22;2581;53.112;8.896;2022-07-15T13:30:37;19.40;99.90
5126;DHT22;2581;53.112;8.896;2022-07-15T13:33:04;19.40;99.90
5126;DHT22;2581;53.112;8.896;2022-07-15T13:35:30;19.50;99.90
5126;DHT22;2581;53.112;8.896;2022-07-15T13:37:55;19.50;99.90
5126;DHT22;2581;53.112;8.896;2022-07-15T13:40:22;19.50;99.90
5126;DHT22;2581;53.112;8.896;2022-07-15T13:42:48;19.50;99.90
5126;DHT22;2581;53.112;8.896;2022-07-15T13:45:14;19.50;99.90
5126;DHT22;2581;53.112;8.896;2022-07-15T13:47:41;19.60;99.90
5126;DHT22;2581;53.112;8.896;2022-07-15T13:50:09;19.60;99.90
5126;DHT22;2581;53.112;8.896;2022-07-15T13:52:56;19.70;99.90
5126;DHT22;2581;53.112;8.896;2022-07-15T13:55:22;19.70;99.90
5126;DHT22;2581;53.112;8.896;2022-07-15T13:57:48;19.70;99.90
5126;DHT22;2581;53.112;8.896;2022-07-15T14:00:17;19.60;99.90
5126;DHT22;2581;53.112;8.896;2022-07-15T14:02:44;19.50;99.90
5126;DHT22;2581;53.112;8.896;2022-07-15T14:05:11;19.60;99.90
5126;DHT22;2581;53.112;8.896;2022-07-15T14:07:37;19.60;99.90
5126;DHT22;2581;53.112;8.896;2022-07-15T14:10:04;19.80;99.90
5126;DHT22;2581;53.112;8.896;2022-07-15T14:12:30;19.80;99.90
5126;DHT22;2581;53.112;8.896;2022-07-15T14:14:56;19.90;99.90
5126;DHT22;2581;53.112;8.896;2022-07-15T14:17:21;20.00;99.90
5126;DHT22;2581;53.112;8.896;2022-07-15T14:19:47;20.10;99.90
5126;DHT22;2581;53.112;8.896;2022-07-15T14:22:13;20.20;99.90
5126;DHT22;2581;53.112;8.896;2022-07-15T14:24:38;20.40;99.90
5126;DHT22;2581;53.112;8.896;2022-07-15T14:27:04;20.70;99.90
5126;DHT22;2581;53.112;8.896;2022-07-15T14:29:30;21.30;99.90
5126;DHT22;2581;53.112;8.896;2022-07-15T14:31:56;21.80;99.90
5126;DHT22;2581;53.112;8.896;2022-07-15T14:34:21;22.20;99.90
5126;DHT22;2581;53.112;8.896;2022-07-15T14:36:47;22.40;99.90
5126;DHT22;2581;53.112;8.896;2022-07-15T14:39:13;22.60;99.90
5126;DHT22;2581;53.112;8.896;2022-07-15T14:41:38;22.60;99.90
5126;DHT22;2581;53.112;8.896;2022-07-15T14:44:05;22.60;99.90
5126;DHT22;2581;53.112;8.896;2022-07-15T14:46:31;22.50;99.90
5126;DHT22;2581;53.112;8.896;2022-07-15T14:48:57;22.30;99.90
5126;DHT22;2581;53.112;8.896;2022-07-15T14:51:23;22.00;99.90
5126;DHT22;2581;53.112;8.896;2022-07-15T14:53:49;21.90;99.90
5126;DHT22;2581;53.112;8.896;2022-07-15T14:56:15;21.70;99.90
5126;DHT22;2581;53.112;8.896;2022-07-15T14:58:40;21.40;99.90
5126;DHT22;2581;53.112;8.896;2022-07-15T15:01:06;21.20;99.90
5126;DHT22;2581;53.112;8.896;2022-07-15T15:03:32;21.10;99.90
5126;DHT22;2581;53.112;8.896;2022-07-15T15:05:58;20.90;99.90
5126;DHT22;2581;53.112;8.896;2022-07-15T15:08:25;20.80;99.90
5126;DHT22;2581;53.112;8.896;2022-07-15T15:10:50;20.60;99.90
5126;DHT22;2581;53.112;8.896;2022-07-15T15:13:16;20.50;99.90
5126;DHT22;2581;53.112;8.896;2022-07-15T15:15:42;20.30;99.90
5126;DHT22;2581;53.112;8.896;2022-07-15T15:18:08;20.20;99.90
5126;DHT22;2581;53.112;8.896;2022-07-15T15:20:34;20.10;99.90
5126;DHT22;2581;53.112;8.896;2022-07-15T15:22:59;19.90;99.90
5126;DHT22;2581;53.112;8.896;2022-07-15T15:25:25;19.80;99.90
5126;DHT22;2581;53.112;8.896;2022-07-15T15:28:10;19.80;99.90
5126;DHT22;2581;53.112;8.896;2022-07-15T15:30:35;19.80;99.90
5126;DHT22;2581;53.112;8.896;2022-07-15T15:33:01;19.70;99.90
5126;DHT22;2581;53.112;8.896;2022-07-15T15:35:27;19.70;99.90
5126;DHT22;2581;53.112;8.896;2022-07-15T15:37:52;19.70;99.90
5126;DHT22;2581;53.112;8.896;2022-07-15T15:40:18;19.60;99.90
5126;DHT22;2581;53.112;8.896;2022-07-15T15:42:44;19.50;99.90
5126;DHT22;2581;53.112;8.896;2022-07-15T15:45:10;19.50;99.90
5126;DHT22;2581;53.112;8.896;2022-07-15T15:47:36;19.30;99.90
5126;DHT22;2581;53.112;8.896;2022-07-15T15:50:02;19.30;99.90
5126;DHT22;2581;53.112;8.896;2022-07-15T15:52:28;19.30;99.90
5126;DHT22;2581;53.112;8.896;2022-07-15T15:54:53;19.20;99.90
5126;DHT22;2581;53.112;8.896;2022-07-15T15:57:19;19.20;99.90
5126;DHT22;2581;53.112;8.896;2022-07-15T15:59:45;19.20;99.90
5126;DHT22;2581;53.112;8.896;2022-07-15T16:02:11;19.10;99.90
5126;DHT22;2581;53.112;8.896;2022-07-15T16:04:36;19.10;99.90
5126;DHT22;2581;53.112;8.896;2022-07-15T16:07:03;19.10;99.90
5126;DHT22;2581;53.112;8.896;2022-07-15T16:09:29;19.10;99.90
5126;DHT22;2581;53.112;8.896;2022-07-15T16:11:54;19.20;99.90
5126;DHT22;2581;53.112;8.896;2022-07-15T16:14:20;19.20;99.90
5126;DHT22;2581;53.112;8.896;2022-07-15T16:16:46;19.20;99.90
5126;DHT22;2581;53.112;8.896;2022-07-15T16:19:11;19.20;99.90
5126;DHT22;2581;53.112;8.896;2022-07-15T16:21:37;19.20;99.90
5126;DHT22;2581;53.112;8.896;2022-07-15T16:24:21;19.20;99.90
5126;DHT22;2581;53.112;8.896;2022-07-15T16:26:47;19.20;99.90
5126;DHT22;2581;53.112;8.896;2022-07-15T16:29:14;19.20;99.90
5126;DHT22;2581;53.112;8.896;2022-07-15T16:31:40;19.30;99.90
5126;DHT22;2581;53.112;8.896;2022-07-15T16:34:06;19.20;99.90
5126;DHT22;2581;53.112;8.896;2022-07-15T16:36:31;19.30;99.90
5126;DHT22;2581;53.112;8.896;2022-07-15T16:38:57;19.20;99.90
5126;DHT22;2581;53.112;8.896;2022-07-15T16:41:23;19.20;99.90